Time;durP1;ratioP1;P1;durP2;ratioP2;P2;SDS_P1;SDS_P2;PMS_P1;PMS_P2;Temp;Humidity;BMP_temperature;BMP_pressure;BME280_temperature;BME280_humidity;BME280_pressure;Samples;Min_cycle;Max_cycle;Signal;HPM_P1;HPM_P2
2023/09/19 00:00:06;;;;;;;4.47;4.15;;;;;;;;;;5047709;28;20282;-64
2023/09/19 00:02:32;;;;;;;4.15;3.88;;;;;;;;;;5046904;28;20708;-64
2023/09/19 00:05:03;;;;;;;4.28;3.78;;;;;;;;;;5047213;28;20241;-64
2023/09/19 00:07:29;;;;;;;4.65;4.35;;;;;;;;;;5047607;28;20268;-64
2023/09/19 00:09:56;;;;;;;4.05;3.75;;;;;;;;;;5047275;28;20221;-64
2023/09/19 00:12:23;;;;;;;4.07;3.60;;;;;;;;;;5046907;28;20219;-64
2023/09/19 00:14:51;;;;;;;6.00;3.97;;;;;;;;;;5046915;28;20199;-63
2023/09/19 00:17:17;;;;;;;4.18;3.53;;;;;;;;;;5047198;28;20207;-64
2023/09/19 00:19:44;;;;;;;6.60;4.03;;;;;;;;;;5046767;28;20226;-64
2023/09/19 00:22:13;;;;;;;4.50;4.13;;;;;;;23.25;100.00;56616.03;5046725;28;20260;-63
2023/09/19 00:24:40;;;;;;;4.85;3.92;;;;;;;;;;5046510;28;20210;-64
2023/09/19 00:27:08;;;;;;;4.93;3.63;;;;;;;;;;5046391;28;20249;-64
2023/09/19 00:29:34;;;;;;;8.63;4.30;;;;;;;;;;5046619;28;20245;-64
2023/09/19 00:32:03;;;;;;;3.95;3.65;;;;;;;;;;5046947;28;20272;-64
2023/09/19 00:34:29;;;;;;;4.88;4.35;;;;;;;;;;5046421;28;20265;-64
2023/09/19 00:36:56;;;;;;;7.30;4.63;;;;;;;;;;5046653;28;20684;-63
2023/09/19 00:39:25;;;;;;;4.18;3.88;;;;;;;;;;5046809;28;20654;-63
2023/09/19 00:41:52;;;;;;;7.20;4.10;;;;;;;;;;5046778;28;20234;-63
2023/09/19 00:44:20;;;;;;;4.55;4.22;;;;;;;;;;5046517;28;20260;-64
2023/09/19 00:46:49;;;;;;;4.85;4.45;;;;;;;;;;5046402;28;20195;-63
2023/09/19 00:49:15;;;;;;;7.88;4.07;;;;;;;;;;5046902;28;20298;-63
2023/09/19 00:51:45;;;;;;;4.95;3.88;;;;;;;;;;5046464;28;20294;-63
2023/09/19 00:54:13;;;;;;;4.95;4.53;;;;;;;;;;5046639;28;20199;-63
2023/09/19 00:56:42;;;;;;;4.57;4.20;;;;;;;;;;5046128;28;20199;-64
2023/09/19 00:59:08;;;;;;;5.72;4.82;;;;;;;;;;5046598;28;20795;-63
2023/09/19 01:01:36;;;;;;;5.05;4.65;;;;;;;;;;5045821;28;20197;-63
2023/09/19 01:04:03;;;;;;;4.55;4.13;;;;;;;;;;5046005;28;20207;-64
2023/09/19 01:06:31;;;;;;;4.13;3.72;;;;;;;;;;5045991;28;20199;-64
2023/09/19 01:08:57;;;;;;;7.47;4.25;;;;;;;;;;5046085;28;20211;-63
2023/09/19 01:11:29;;;;;;;6.90;4.45;;;;;;;;;;5046074;28;20219;-64
2023/09/19 01:13:58;;;;;;;5.07;4.68;;;;;;;;;;5040609;28;20195;-63
2023/09/19 01:16:33;;;;;;;4.38;4.07;;;;;;;;;;5029148;28;20195;-63
2023/09/19 01:19:03;;;;;;;5.15;4.72;;;;;;;;;;5030365;28;20212;-63
2023/09/19 01:21:36;;;;;;;5.72;4.40;;;;;;;;;;5027328;28;20703;-64
2023/09/19 01:24:23;;;;;;;5.25;4.82;;;;;;;;;;5029333;28;20688;-64
2023/09/19 01:26:57;;;;;;;7.63;5.40;;;;;;;;;;5031991;28;20382;-61
2023/09/19 01:29:34;;;;;;;5.30;4.82;;;;;;;;;;5036541;28;20655;-64
2023/09/19 01:32:04;;;;;;;8.73;5.10;;;;;;;;;;5032662;28;20658;-64
2023/09/19 01:34:45;;;;;;;6.68;4.97;;;;;;;;;;5032506;28;20688;-65
2023/09/19 01:37:12;;;;;;;5.13;4.75;;;;;;;23.25;100.00;56616.03;5028679;28;20256;-64
2023/09/19 01:39:39;;;;;;;5.70;5.25;;;;;;;;;;5027554;28;20747;-64
2023/09/19 01:42:09;;;;;;;4.82;4.53;;;;;;;;;;5033977;28;20203;-64
2023/09/19 01:44:41;;;;;;;6.10;4.82;;;;;;;;;;5030279;28;20207;-65
2023/09/19 01:47:14;;;;;;;6.20;5.38;;;;;;;;;;5028115;28;20223;-64
2023/09/19 01:49:57;;;;;;;5.03;4.55;;;;;;;;;;5030260;28;20234;-64
2023/09/19 01:52:27;;;;;;;41.63;25.33;;;;;;;;;;5030748;28;20199;-64
2023/09/19 01:54:56;;;;;;;7.40;6.70;;;;;;;;;;5029097;28;20235;-65
2023/09/19 01:57:28;;;;;;;6.20;5.70;;;;;;;;;;5027530;28;20754;-64
2023/09/19 01:59:58;;;;;;;8.93;8.02;;;;;;;;;;5035492;28;20222;-65
2023/09/19 02:02:26;;;;;;;5.43;5.00;;;;;;;;;;5036539;28;20234;-67
2023/09/19 02:04:53;;;;;;;14.45;9.70;;;;;;;;;;5030372;28;20258;-67
2023/09/19 02:07:20;;;;;;;83.95;31.85;;;;;;;;;;5031341;28;20261;-67
2023/09/19 02:09:47;;;;;;;66.18;27.00;;;;;;;;;;5028818;28;20250;-65
2023/09/19 02:12:15;;;;;;;54.78;20.52;;;;;;;;;;5030347;28;20761;-64
2023/09/19 02:14:42;;;;;;;39.35;16.73;;;;;;;;;;5029037;28;20199;-63
2023/09/19 02:17:11;;;;;;;7.05;6.28;;;;;;;;;;5027712;28;20277;-63
2023/09/19 02:19:40;;;;;;;8.63;7.70;;;;;;;;;;5036116;28;20249;-63
2023/09/19 02:22:09;;;;;;;6.63;6.13;;;;;;;;;;5029973;28;20707;-63
2023/09/19 02:24:36;;;;;;;7.30;6.50;;;;;;;;;;5029994;28;20219;-64
2023/09/19 02:27:05;;;;;;;5.47;5.15;;;;;;;;;;5028804;28;20732;-64
2023/09/19 02:29:32;;;;;;;8.30;6.50;;;;;;;;;;5029585;28;20208;-64
2023/09/19 02:31:58;;;;;;;6.13;5.43;;;;;;;;;;5028962;28;20255;-64
2023/09/19 02:34:25;;;;;;;6.32;5.57;;;;;;;;;;5027921;28;20203;-64
2023/09/19 02:36:53;;;;;;;6.65;5.80;;;;;;;;;;5029662;28;20943;-65
2023/09/19 02:39:20;;;;;;;8.35;6.22;;;;;;;;;;5031207;28;20210;-65
2023/09/19 02:41:46;;;;;;;6.45;5.90;;;;;;;;;;5033397;28;20291;-64
2023/09/19 02:44:14;;;;;;;6.75;6.25;;;;;;;;;;5037686;28;20196;-65
2023/09/19 02:46:40;;;;;;;8.80;5.50;;;;;;;;;;5032526;28;20226;-64
2023/09/19 02:49:07;;;;;;;6.63;6.00;;;;;;;;;;5036507;28;20256;-64
2023/09/19 02:51:34;;;;;;;7.82;6.35;;;;;;;;;;5033210;28;20234;-64
2023/09/19 02:54:03;;;;;;;6.70;6.00;;;;;;;;;;5032668;28;20285;-64
2023/09/19 02:56:30;;;;;;;8.10;5.57;;;;;;;;;;5037982;28;20280;-64
2023/09/19 02:58:57;;;;;;;8.18;6.38;;;;;;;;;;5040108;28;20212;-64
2023/09/19 03:01:24;;;;;;;6.47;5.97;;;;;;;;;;5035013;28;20203;-64
2023/09/19 03:03:50;;;;;;;6.78;6.28;;;;;;;;;;5037647;28;20253;-64
2023/09/19 03:06:20;;;;;;;6.65;6.10;;;;;;;;;;5041149;28;20199;-63
2023/09/19 03:08:48;;;;;;;7.82;5.35;;;;;;;;;;5033773;28;20676;-63
2023/09/19 03:11:18;;;;;;;6.80;5.93;;;;;;;;;;5036860;28;20715;-64
2023/09/19 03:13:45;;;;;;;5.88;5.28;;;;;;;;;;5031505;28;20720;-62
2023/09/19 03:16:15;;;;;;;9.05;5.85;;;;;;;;;;5031523;28;20192;-65
2023/09/19 03:18:41;;;;;;;7.05;6.47;;;;;;;;;;5032306;28;20205;-64
2023/09/19 03:21:07;;;;;;;6.03;5.53;;;;;;;;;;5037580;28;20227;-63
2023/09/19 03:23:34;;;;;;;6.53;5.90;;;;;;;;;;5034363;28;20211;-64
2023/09/19 03:26:00;;;;;;;8.98;7.10;;;;;;;;;;5031584;28;21337;-64
2023/09/19 03:28:29;;;;;;;7.05;5.65;;;;;;;;;;5037957;28;20199;-64
2023/09/19 03:31:02;;;;;;;9.23;6.32;;;;;;;;;;5034651;28;20223;-64
2023/09/19 03:33:31;;;;;;;5.85;5.35;;;;;;;;;;5037780;28;20207;-64
2023/09/19 03:35:58;;;;;;;8.68;5.88;;;;;;;;;;5033188;28;20214;-64
2023/09/19 03:38:24;;;;;;;6.50;5.82;;;;;;;;;;5029944;28;20210;-64
2023/09/19 03:40:51;;;;;;;8.10;6.32;;;;;;;;;;5033030;28;20196;-64
2023/09/19 03:43:17;;;;;;;7.05;6.45;;;;;;;;;;5032990;28;20226;-64
2023/09/19 03:45:46;;;;;;;8.32;6.82;;;;;;;;;;5028792;28;20295;-64
2023/09/19 03:48:13;;;;;;;7.75;7.15;;;;;;;;;;5027204;28;20195;-65
2023/09/19 03:50:39;;;;;;;7.45;6.85;;;;;;;;;;5033536;28;20605;-66
2023/09/19 03:53:07;;;;;;;7.82;6.53;;;;;;;;;;5028663;28;20264;-64
2023/09/19 03:55:35;;;;;;;10.88;6.45;;;;;;;;;;5028252;28;20701;-65
2023/09/19 03:58:01;;;;;;;8.55;6.55;;;;;;;;;;5029244;28;20218;-64
2023/09/19 04:00:29;;;;;;;7.80;7.00;;;;;;;;;;5030089;28;20223;-65
2023/09/19 04:02:57;;;;;;;23.33;14.85;;;;;;;;;;5034139;28;20222;-64
2023/09/19 04:05:23;;;;;;;12.13;9.88;;;;;;;;;;5033891;28;20204;-64
2023/09/19 04:07:51;;;;;;;8.10;6.78;;;;;;;;;;5031747;28;20199;-65
2023/09/19 04:10:17;;;;;;;8.63;7.80;;;;;;;;;;5030959;28;20294;-66
2023/09/19 04:12:51;;;;;;;7.45;6.78;;;;;;;;;;5033112;28;20685;-65
2023/09/19 04:15:17;;;;;;;6.97;6.38;;;;;;;;;;5038107;28;20195;-64
2023/09/19 04:17:44;;;;;;;10.63;6.63;;;;;;;;;;5030917;28;20254;-64
2023/09/19 04:20:12;;;;;;;6.93;6.00;;;;;;;;;;5028745;28;20204;-65
2023/09/19 04:22:39;;;;;;;7.32;6.30;;;;;;;;;;5032908;28;20623;-65
2023/09/19 04:25:06;;;;;;;7.28;6.57;;;;;;;;;;5037109;28;20195;-65
2023/09/19 04:27:33;;;;;;;16.45;12.60;;;;;;;;;;5033558;28;20229;-65
2023/09/19 04:30:05;;;;;;;16.80;11.85;;;;;;;;;;5028225;28;20261;-66
2023/09/19 04:32:32;;;;;;;10.50;8.23;;;;;;;;;;5028966;28;20285;-65
2023/09/19 04:35:02;;;;;;;11.07;7.03;;;;;;;;;;5032132;28;20199;-66
2023/09/19 04:37:30;;;;;;;8.68;6.38;;;;;;;;;;5031414;28;20199;-64
2023/09/19 04:39:56;;;;;;;7.90;6.55;;;;;;;;;;5029597;28;20265;-65
2023/09/19 04:42:24;;;;;;;22.02;15.95;;;;;;;;;;5029206;28;20207;-66
2023/09/19 04:44:54;;;;;;;19.90;14.18;;;;;;;;;;5031570;28;20615;-65
2023/09/19 04:47:21;;;;;;;21.88;9.07;;;;;;;;;;5037701;28;20206;-65
2023/09/19 04:49:47;;;;;;;43.70;26.92;;;;;;;;;;5035286;28;20605;-65
2023/09/19 04:52:15;;;;;;;16.45;13.05;;;;;;;;;;5032295;28;20736;-63
2023/09/19 04:54:42;;;;;;;10.70;8.85;;;;;;;;;;5033041;28;20689;-66
2023/09/19 04:57:09;;;;;;;8.48;7.53;;;;;;;;;;5030466;28;20249;-65
2023/09/19 04:59:36;;;;;;;8.88;7.25;;;;;;;;;;5030404;28;20260;-65
2023/09/19 05:02:02;;;;;;;11.25;7.78;;;;;;;;;;5026977;28;20196;-66
2023/09/19 05:04:29;;;;;;;8.02;7.22;;;;;;;;;;5029914;28;20198;-66
2023/09/19 05:06:55;;;;;;;8.30;7.20;;;;;;;;;;5030601;28;20210;-65
2023/09/19 05:09:22;;;;;;;8.63;6.85;;;;;;;;;;5029128;28;20203;-65
2023/09/19 05:11:51;;;;;;;6.80;6.00;;;;;;;;;;5029969;28;20243;-65
2023/09/19 05:14:17;;;;;;;7.18;6.10;;;;;;;;;;5031776;28;20207;-65
2023/09/19 05:16:44;;;;;;;12.13;7.05;;;;;;;;;;5033745;28;20203;-65
2023/09/19 05:19:11;;;;;;;6.38;5.82;;;;;;;;;;5031370;28;20202;-65
2023/09/19 05:21:38;;;;;;;9.57;5.70;;;;;;;;;;5032622;28;20207;-64
2023/09/19 05:24:06;;;;;;;5.82;5.20;;;;;;;;;;5035714;28;20211;-65
2023/09/19 05:26:32;;;;;;;6.40;5.75;;;;;;;;;;5031315;28;20322;-65
2023/09/19 05:29:01;;;;;;;5.90;5.40;;;;;;;;;;5036575;28;20203;-65
2023/09/19 05:31:27;;;;;;;6.93;6.40;;;;;;;;;;5030781;28;20249;-65
2023/09/19 05:33:54;;;;;;;8.30;5.63;;;;;;;;;;5032825;28;20207;-63
2023/09/19 05:36:21;;;;;;;9.45;5.70;;;;;;;;;;5030549;28;20211;-65
2023/09/19 05:38:49;;;;;;;6.25;5.40;;;;;;;;;;5042545;28;20223;-66
2023/09/19 05:41:17;;;;;;;8.70;5.05;;;;;;;;;;5029831;28;20210;-64
2023/09/19 05:43:44;;;;;;;6.45;5.63;;;;;;;;;;5027080;28;20330;-64
2023/09/19 05:46:12;;;;;;;8.73;5.60;;;;;;;;;;5032747;28;20300;-64
2023/09/19 05:48:39;;;;;;;6.32;5.72;;;;;;;;;;5031420;28;20207;-65
2023/09/19 05:51:05;;;;;;;5.63;4.93;;;;;;;;;;5026826;28;20620;-63
2023/09/19 05:53:32;;;;;;;6.18;5.63;;;;;;;;;;5027006;28;20651;-64
2023/09/19 05:56:00;;;;;;;5.82;5.30;;;;;;;;;;5030344;28;20200;-64
2023/09/19 05:58:27;;;;;;;6.60;5.72;;;;;;;;;;5031316;28;20211;-64
2023/09/19 06:00:53;;;;;;;5.55;5.25;;;;;;;;;;5031427;28;20262;-65
2023/09/19 06:03:21;;;;;;;8.02;5.43;;;;;;;;;;5031391;28;20260;-65
2023/09/19 06:05:49;;;;;;;6.78;5.53;;;;;;;;;;5033842;28;20264;-65
2023/09/19 06:08:15;;;;;;;6.05;5.47;;;;;;;;;;5032446;28;20206;-64
2023/09/19 06:10:42;;;;;;;6.28;5.10;;;;;;;;;;5029379;28;20199;-64
2023/09/19 06:13:09;;;;;;;8.20;5.05;;;;;;;;;;5038226;28;20246;-64
2023/09/19 06:15:36;;;;;;;5.25;4.85;;;;;;;;;;5033812;28;20286;-64
2023/09/19 06:18:04;;;;;;;7.45;5.43;;;;;;;;;;5032069;28;20207;-65
2023/09/19 06:20:33;;;;;;;5.35;4.95;;;;;;;;;;5032827;28;20550;-65
2023/09/19 06:23:01;;;;;;;5.47;4.97;;;;;;;;;;5035569;28;20226;-64
2023/09/19 06:25:28;;;;;;;6.72;5.18;;;;;;;;;;5042347;28;20202;-63
2023/09/19 06:27:54;;;;;;;7.20;5.32;;;;;;;;;;5036291;28;20308;-65
2023/09/19 06:30:21;;;;;;;4.90;4.50;;;;;;;;;;5036087;28;20224;-66
2023/09/19 06:32:48;;;;;;;7.38;4.95;;;;;;;;;;5031894;28;20815;-67
2023/09/19 06:35:15;;;;;;;5.75;5.22;;;;;;;;;;5034763;28;20610;-61
2023/09/19 06:37:43;;;;;;;6.55;4.88;;;;;;;;;;5035519;28;20248;-60
2023/09/19 06:40:13;;;;;;;5.55;4.35;;;;;;;;;;5036208;28;20246;-64
2023/09/19 06:42:40;;;;;;;5.57;5.18;;;;;;;;;;5032462;28;20287;-63
2023/09/19 06:45:07;;;;;;;4.90;4.60;;;;;;;;;;5031919;28;20200;-63
2023/09/19 06:47:34;;;;;;;5.97;4.63;;;;;;;;;;5028606;28;20218;-61
2023/09/19 06:50:02;;;;;;;5.13;4.32;;;;;;;;;;5032139;28;20231;-61
2023/09/19 06:52:28;;;;;;;8.45;4.32;;;;;;;;;;5033693;28;20219;-63
2023/09/19 06:54:56;;;;;;;5.93;4.78;;;;;;;;;;5033070;28;20739;-61
2023/09/19 06:57:23;;;;;;;9.18;5.10;;;;;;;;;;5031765;28;21396;-62
2023/09/19 06:59:50;;;;;;;5.28;4.82;;;;;;;;;;5040026;28;20199;-60
2023/09/19 07:02:17;;;;;;;6.55;5.13;;;;;;;;;;5029689;28;20307;-62
2023/09/19 07:04:43;;;;;;;7.43;5.82;;;;;;;;;;5029534;28;20691;-61
2023/09/19 07:07:10;;;;;;;5.32;4.93;;;;;;;;;;5037689;28;20757;-62
2023/09/19 07:09:36;;;;;;;5.15;4.65;;;;;;;;;;5036003;28;20265;-61
2023/09/19 07:12:05;;;;;;;4.75;4.45;;;;;;;;;;5028911;28;20258;-63
2023/09/19 07:14:32;;;;;;;9.80;4.60;;;;;;;;;;5037850;28;20695;-67
2023/09/19 07:16:59;;;;;;;6.75;5.70;;;;;;;;;;5034124;28;20199;-62
2023/09/19 07:19:28;;;;;;;5.68;5.10;;;;;;;;;;5036450;28;20282;-64
2023/09/19 07:21:55;;;;;;;6.88;4.53;;;;;;;;;;5033081;28;20240;-63
2023/09/19 07:24:23;;;;;;;7.00;4.53;;;;;;;;;;5028739;28;20196;-62
2023/09/19 07:26:49;;;;;;;6.00;4.55;;;;;;;;;;5030928;28;20254;-63
2023/09/19 07:29:17;;;;;;;4.63;4.20;;;;;;;;;;5031322;28;20200;-63
2023/09/19 07:31:44;;;;;;;4.53;4.13;;;;;;;;;;5033907;28;20228;-61
2023/09/19 07:34:10;;;;;;;4.15;3.95;;;;;;;;;;5031714;28;20285;-62
2023/09/19 07:36:38;;;;;;;11.25;5.38;;;;;;;;;;5031605;28;20230;-63
2023/09/19 07:39:06;;;;;;;8.40;3.83;;;;;;;;;;5041758;28;20587;-62
2023/09/19 07:41:33;;;;;;;4.35;3.85;;;;;;;;;;5032903;28;20290;-63
2023/09/19 07:43:59;;;;;;;5.93;5.53;;;;;;;;;;5035069;28;20232;-62
2023/09/19 07:46:27;;;;;;;5.20;4.72;;;;;;;;;;5032650;28;20203;-61
2023/09/19 07:48:53;;;;;;;4.85;4.40;;;;;;;;;;5027934;28;20215;-61
2023/09/19 07:51:20;;;;;;;7.70;3.78;;;;;;;;;;5031102;28;20922;-61
2023/09/19 07:53:48;;;;;;;5.15;4.38;;;;;;;;;;5027508;28;20288;-64
2023/09/19 07:56:14;;;;;;;4.88;4.47;;;;;;;;;;5033259;28;20636;-63
2023/09/19 07:58:43;;;;;;;4.78;4.35;;;;;;;;;;5029254;28;20224;-63
2023/09/19 08:01:10;;;;;;;5.65;4.53;;;;;;;;;;5031770;28;20192;-62
2023/09/19 08:03:40;;;;;;;6.45;4.65;;;;;;;;;;5035227;28;20731;-61
2023/09/19 08:06:07;;;;;;;4.57;3.78;;;;;;;;;;5031988;28;20211;-61
2023/09/19 08:08:34;;;;;;;4.50;4.20;;;;;;;;;;5028391;28;20273;-63
2023/09/19 08:11:01;;;;;;;7.15;5.05;;;;;;;;;;5031810;28;20257;-61
2023/09/19 08:13:27;;;;;;;5.68;5.05;;;;;;;;;;5038751;28;20230;-61
2023/09/19 08:15:54;;;;;;;4.57;4.03;;;;;;;;;;5030929;28;20266;-64
2023/09/19 08:18:21;;;;;;;5.93;4.65;;;;;;;;;;5031130;28;20208;-61
2023/09/19 08:20:52;;;;;;;5.70;4.25;;;;;;;;;;5035917;28;20211;-64
2023/09/19 08:23:20;;;;;;;7.20;4.38;;;;;;;;;;5037003;28;20227;-60
2023/09/19 08:25:46;;;;;;;4.78;4.30;;;;;;;;;;5032369;28;20210;-62
2023/09/19 08:28:17;;;;;;;4.82;4.40;;;;;;;;;;5030354;28;20672;-63
2023/09/19 08:30:44;;;;;;;4.57;3.75;;;;;;;;;;5030254;28;20712;-63
2023/09/19 08:33:10;;;;;;;5.65;4.72;;;;;;;;;;5034534;28;20625;-62
2023/09/19 08:35:39;;;;;;;5.00;4.60;;;;;;;;;;5037323;28;20203;-62
2023/09/19 08:38:07;;;;;;;4.57;4.28;;;;;;;;;;5029895;28;20303;-62
2023/09/19 08:40:34;;;;;;;5.72;4.47;;;;;;;;;;5040855;28;20234;-63
2023/09/19 08:43:01;;;;;;;5.45;5.00;;;;;;;;;;5035436;28;20196;-60
2023/09/19 08:45:28;;;;;;;6.18;5.35;;;;;;;;;;5031836;28;20282;-60
2023/09/19 08:48:11;;;;;;;4.35;4.05;;;;;;;;;;5029831;28;20212;-63
2023/09/19 08:50:42;;;;;;;5.40;4.90;;;;;;;;;;5029582;28;20210;-62
2023/09/19 08:53:12;;;;;;;13.23;4.57;;;;;;;;;;5028628;28;20219;-63
2023/09/19 08:55:41;;;;;;;5.47;4.80;;;;;;;;;;5029664;28;20195;-63
2023/09/19 08:58:10;;;;;;;7.00;5.60;;;;;;;;;;5030896;28;20200;-61
2023/09/19 09:00:37;;;;;;;9.32;5.53;;;;;;;;;;5032655;28;20203;-64
2023/09/19 09:03:04;;;;;;;5.70;5.22;;;;;;;;;;5039877;28;20234;-62
2023/09/19 09:05:32;;;;;;;5.50;5.00;;;;;;;;;;5034589;28;20214;-59
2023/09/19 09:08:00;;;;;;;6.03;5.60;;;;;;;-142.91;100.00;145487.84;5030242;28;20203;-61
2023/09/19 09:10:27;;;;;;;14.32;5.10;;;;;;;;;;5031155;28;20196;-62
2023/09/19 09:12:55;;;;;;;9.48;5.30;;;;;;;;;;5031030;28;20246;-64
2023/09/19 09:15:23;;;;;;;5.80;5.03;;;;;;;;;;5034378;28;20682;-63
2023/09/19 09:17:50;;;;;;;5.90;5.32;;;;;;;;;;5031531;28;20686;-62
2023/09/19 09:20:16;;;;;;;7.63;5.80;;;;;;;;;;5032375;28;20204;-63
2023/09/19 09:22:51;;;;;;;4.60;4.30;;;;;;;;;;5034027;28;20755;-62
2023/09/19 09:25:18;;;;;;;5.47;4.47;;;;;;;;;;5032201;28;20280;-62
2023/09/19 09:27:46;;;;;;;4.70;4.30;;;;;;;;;;5032933;28;20234;-64
2023/09/19 09:30:33;;;;;;;6.93;4.70;;;;;;;;;;5031976;28;20219;-61
2023/09/19 09:33:10;;;;;;;5.43;4.93;;;;;;;;;;5026931;28;20223;-62
2023/09/19 09:35:38;;;;;;;6.35;5.13;;;;;;;;;;5025962;28;20200;-61
2023/09/19 09:38:08;;;;;;;10.48;6.13;;;;;;;;;;5028669;28;20231;-59
2023/09/19 09:40:47;;;;;;;7.03;5.35;;;;;;;;;;5028923;28;20207;-59
2023/09/19 09:43:27;;;;;;;5.65;5.15;;;;;;;;;;5032642;28;20195;-63
2023/09/19 09:46:18;;;;;;;7.65;5.68;;;;;;;;;;5026320;28;20633;-62
2023/09/19 09:48:51;;;;;;;6.22;5.13;;;;;;;;;;5030676;28;20349;-65
2023/09/19 09:51:30;;;;;;;12.18;5.30;;;;;;;;;;5033840;28;20205;-61
2023/09/19 09:54:12;;;;;;;7.55;5.07;;;;;;;;;;5028731;28;20313;-61
2023/09/19 09:56:52;;;;;;;7.97;5.40;;;;;;;;;;5034190;28;20205;-62
2023/09/19 09:59:23;;;;;;;6.40;5.72;;;;;;;;;;5035332;28;20230;-64
2023/09/19 10:01:53;;;;;;;5.40;5.00;;;;;;;;;;5027107;28;20199;-59
2023/09/19 10:04:31;;;;;;;11.50;5.55;;;;;;;23.25;100.00;56616.03;5031832;28;20203;-59
2023/09/19 10:06:57;;;;;;;6.40;5.65;;;;;;;;;;5032035;28;20204;-62
2023/09/19 10:09:36;;;;;;;9.70;5.35;;;;;;;;;;5032295;28;20223;-65
2023/09/19 10:12:04;;;;;;;6.13;5.50;;;;;;;;;;5033288;28;20310;-62
2023/09/19 10:14:34;;;;;;;10.77;5.28;;;;;;;;;;5030563;28;20224;-61
2023/09/19 10:17:05;;;;;;;11.30;4.93;;;;;;;;;;5032449;28;20207;-60
2023/09/19 10:19:37;;;;;;;6.53;5.03;;;;;;;;;;5025430;28;20217;-63
2023/09/19 10:22:08;;;;;;;7.45;5.22;;;;;;;23.25;100.00;56616.03;5029013;28;20226;-62
2023/09/19 10:24:36;;;;;;;5.22;4.88;;;;;;;;;;5033701;28;20214;-63
2023/09/19 10:27:03;;;;;;;5.60;4.50;;;;;;;;;;5032204;28;20617;-61
2023/09/19 10:29:36;;;;;;;4.90;4.40;;;;;;;23.25;100.00;56616.03;5030479;28;20664;-64
2023/09/19 10:32:05;;;;;;;5.97;5.20;;;;;;;;;;5034809;28;20230;-64
2023/09/19 10:34:32;;;;;;;8.60;4.82;;;;;;;;;;5034219;28;20219;-65
2023/09/19 10:37:05;;;;;;;6.95;4.63;;;;;;;23.25;100.00;56616.03;5033987;28;20266;-61
2023/09/19 10:39:33;;;;;;;6.70;4.60;;;;;;;23.25;100.00;56616.03;5026760;28;20235;-64
2023/09/19 10:42:05;;;;;;;12.05;5.18;;;;;;;;;;5028792;28;20274;-64
2023/09/19 10:44:34;;;;;;;6.10;5.25;;;;;;;-142.91;100.00;61060.13;5027031;28;20703;-64
2023/09/19 10:47:01;;;;;;;9.52;4.97;;;;;;;23.25;100.00;56616.03;5028969;28;20200;-62
2023/09/19 10:49:27;;;;;;;10.40;5.63;;;;;;;;;;5029951;28;20677;-60
2023/09/19 10:51:56;;;;;;;5.63;5.13;;;;;;;;;;5029944;28;20227;-62
2023/09/19 10:54:28;;;;;;;6.00;5.28;;;;;;;23.25;100.00;56616.03;5028982;28;20604;-64
2023/09/19 10:56:58;;;;;;;4.90;4.55;;;;;;;23.25;100.00;56616.03;5033499;28;20202;-64
2023/09/19 10:59:34;;;;;;;6.90;4.75;;;;;;;23.25;100.00;56616.03;5031146;28;20658;-64
2023/09/19 11:02:18;;;;;;;9.65;4.55;;;;;;;23.25;100.00;56616.03;5029230;28;20239;-62
2023/09/19 11:04:47;;;;;;;6.93;4.28;;;;;;;23.25;100.00;56616.03;5037990;28;20206;-62
2023/09/19 11:07:15;;;;;;;7.65;4.70;;;;;;;23.25;100.00;56616.03;5034236;28;20207;-62
2023/09/19 11:09:46;;;;;;;8.70;4.90;;;;;;;23.25;100.00;56616.03;5035070;28;20692;-64
2023/09/19 11:12:13;;;;;;;5.25;4.80;;;;;;;23.25;100.00;56616.03;5032630;28;20356;-61
2023/09/19 11:14:42;;;;;;;4.75;4.00;;;;;;;23.25;100.00;56616.03;5033122;28;20685;-62
2023/09/19 11:17:41;;;;;;;4.30;3.95;;;;;;;23.25;100.00;56616.03;5029663;28;20269;-63
2023/09/19 11:23:25;;;;;;;6.50;4.53;;;;;;;23.25;100.00;56616.03;5029836;28;20513;-62
2023/09/19 11:25:53;;;;;;;5.00;4.70;;;;;;;23.25;100.00;56616.03;5030177;28;20215;-62
2023/09/19 11:28:33;;;;;;;9.80;4.55;;;;;;;23.25;100.00;56616.03;5031130;28;20672;-62
2023/09/19 11:31:00;;;;;;;9.85;5.57;;;;;;;23.25;100.00;56616.03;5033821;28;20249;-57
2023/09/19 11:33:31;;;;;;;4.65;4.30;;;;;;;23.25;100.00;56616.03;5033218;28;20211;-62
2023/09/19 11:36:05;;;;;;;5.10;4.43;;;;;;;23.25;100.00;56616.03;5028362;28;20685;-62
2023/09/19 11:39:01;;;;;;;5.10;4.60;;;;;;;23.25;100.00;56616.03;5031072;28;20203;-61
2023/09/19 11:41:41;;;;;;;5.25;4.82;;;;;;;23.25;100.00;56616.03;5029129;28;20199;-63
2023/09/19 11:44:38;;;;;;;8.20;5.18;;;;;;;23.25;100.00;56616.03;5028141;28;20659;-63
2023/09/19 11:47:06;;;;;;;6.13;4.45;;;;;;;23.25;100.00;56616.03;5030774;28;20208;-62
2023/09/19 11:49:36;;;;;;;5.50;4.07;;;;;;;-142.91;100.00;56616.03;5030898;28;20199;-61
2023/09/19 11:52:05;;;;;;;5.22;4.70;;;;;;;-142.91;100.00;56616.03;5034521;28;20292;-62
2023/09/19 11:54:33;;;;;;;6.10;3.83;;;;;;;23.25;100.00;56616.03;5036643;28;20310;-62
2023/09/19 11:57:02;;;;;;;7.10;4.82;;;;;;;23.25;100.00;56616.03;5042395;28;20681;-60
2023/09/19 11:59:30;;;;;;;6.47;4.72;;;;;;;-142.91;100.00;56616.03;5033233;28;20246;-64
2023/09/19 12:01:58;;;;;;;6.47;5.13;;;;;;;-142.91;100.00;56616.03;5030401;28;20211;-63
2023/09/19 12:04:38;;;;;;;7.72;5.97;;;;;;;23.25;100.00;56616.03;5030969;28;20223;-62
2023/09/19 12:07:10;;;;;;;4.82;4.53;;;;;;;23.25;100.00;56616.03;5035434;28;20293;-61
2023/09/19 12:09:40;;;;;;;7.35;4.75;;;;;;;-142.91;100.00;56616.03;5034771;28;20598;-62
2023/09/19 12:12:07;;;;;;;9.68;4.75;;;;;;;-142.91;100.00;56616.03;5032179;28;20262;-61
2023/09/19 12:14:34;;;;;;;5.57;5.18;;;;;;;-142.91;100.00;56616.03;5031700;28;20250;-63
2023/09/19 12:17:03;;;;;;;5.82;4.82;;;;;;;-142.91;100.00;56616.03;5031597;28;20210;-62
2023/09/19 12:19:30;;;;;;;9.05;5.35;;;;;;;-142.91;100.00;56616.03;5030376;28;20207;-61
2023/09/19 12:21:59;;;;;;;5.43;5.10;;;;;;;-142.91;100.00;56616.03;5030942;28;20242;-61
2023/09/19 12:24:29;;;;;;;5.65;5.10;;;;;;;-142.91;100.00;56616.03;5035739;28;20254;-62
2023/09/19 12:27:01;;;;;;;6.82;5.72;;;;;;;-142.91;100.00;56616.03;5031992;28;20262;-64
2023/09/19 12:29:29;;;;;;;7.22;5.50;;;;;;;;;;5038049;28;20195;-62
2023/09/19 12:31:58;;;;;;;6.45;4.95;;;;;;;-142.91;100.00;56616.03;5037967;28;20243;-61
2023/09/19 12:34:28;;;;;;;6.95;5.25;;;;;;;-142.91;100.00;56616.03;5031244;28;20266;-62
2023/09/19 12:37:12;;;;;;;11.52;6.13;;;;;;;-142.91;100.00;56616.03;5030695;28;20680;-62
2023/09/19 12:39:48;;;;;;;7.10;5.80;;;;;;;-142.91;100.00;56616.03;5031193;28;20281;-61
2023/09/19 12:42:16;;;;;;;9.48;5.63;;;;;;;-142.91;100.00;56616.03;5029113;28;20199;-62
2023/09/19 12:44:44;;;;;;;9.63;6.10;;;;;;;-142.91;100.00;56616.03;5030499;28;20227;-63
2023/09/19 12:47:18;;;;;;;6.03;5.45;;;;;;;-142.91;100.00;56616.03;5029455;28;20845;-62
2023/09/19 12:50:07;;;;;;;5.60;5.18;;;;;;;-142.91;100.00;56616.03;5029735;28;20232;-61
2023/09/19 12:52:39;;;;;;;12.43;5.50;;;;;;;-142.91;100.00;56616.03;5034799;28;20203;-64
2023/09/19 12:55:07;;;;;;;11.20;6.45;;;;;;;-142.91;100.00;56616.03;5030352;28;20672;-61
2023/09/19 12:57:34;;;;;;;6.60;5.60;;;;;;;-142.91;100.00;56616.03;5029870;28;20241;-63
2023/09/19 13:00:01;;;;;;;6.88;5.28;;;;;;;23.26;100.00;56616.03;5030463;28;20207;-62
2023/09/19 13:02:29;;;;;;;8.07;5.68;;;;;;;-142.91;100.00;56616.03;5036363;28;20202;-61
2023/09/19 13:04:59;;;;;;;6.10;5.35;;;;;;;-142.91;100.00;56616.03;5030224;28;20191;-62
2023/09/19 13:07:46;;;;;;;6.00;5.40;;;;;;;-142.91;100.00;56616.03;5031060;28;20287;-62
2023/09/19 13:10:16;;;;;;;7.60;5.15;;;;;;;-142.91;100.00;56616.03;5032453;28;20204;-61
2023/09/19 13:12:47;;;;;;;5.40;4.85;;;;;;;23.90;100.00;56616.03;5032216;28;20204;-61
2023/09/19 13:15:19;;;;;;;7.30;5.10;;;;;;;-142.91;100.00;56616.03;5030700;28;20220;-62
2023/09/19 13:17:48;;;;;;;5.53;5.13;;;;;;;23.90;100.00;56616.03;5030267;28;20282;-61
2023/09/19 13:20:29;;;;;;;7.28;5.20;;;;;;;24.55;100.00;56616.03;5030280;28;20253;-58
2023/09/19 13:23:00;;;;;;;6.53;5.53;;;;;;;28.45;100.00;56616.03;5037001;28;20673;-62
2023/09/19 13:25:29;;;;;;;5.13;4.53;;;;;;;25.85;100.00;56616.03;5035585;28;20633;-63
2023/09/19 13:27:59;;;;;;;5.85;4.57;;;;;;;33.65;100.00;56616.03;5034362;28;20232;-61
2023/09/19 13:30:29;;;;;;;7.57;5.57;;;;;;;33.65;100.00;56616.03;5036335;28;20223;-61
2023/09/19 13:33:06;;;;;;;8.15;5.47;;;;;;;23.25;100.00;56616.03;5034982;28;20195;-62
2023/09/19 13:35:33;;;;;;;4.80;4.50;;;;;;;23.25;100.00;56616.03;5028040;28;20219;-61
2023/09/19 13:38:01;;;;;;;5.03;4.70;;;;;;;23.25;100.00;56616.03;5032060;28;20241;-59
2023/09/19 13:40:30;;;;;;;7.00;5.20;;;;;;;-142.91;100.00;56616.03;5026911;28;20676;-62
2023/09/19 13:42:57;;;;;;;6.25;4.63;;;;;;;23.26;100.00;56616.03;5027398;28;20569;-62
2023/09/19 13:45:26;;;;;;;6.55;5.18;;;;;;;-142.91;100.00;56616.03;5032828;28;20742;-62
2023/09/19 13:47:53;;;;;;;8.20;5.40;;;;;;;-142.91;100.00;56616.03;5028704;28;20208;-62
2023/09/19 13:50:24;;;;;;;6.47;5.15;;;;;;;-142.91;100.00;56616.03;5030199;28;20207;-62
2023/09/19 13:52:51;;;;;;;5.43;4.82;;;;;;;-142.91;100.00;56616.03;5028228;28;20202;-63
2023/09/19 13:55:20;;;;;;;6.40;5.70;;;;;;;-142.91;100.00;56616.03;5031696;28;20230;-63